Logo AVAMET
Benvolgut visitant, si us plau, ingressa Recuperar contrasenya
AVAMET paisatges
Union Alcoyana

Teulada Sant Jaume

Dades diàries. Acumulats / Últims 30 dies disponibles

Data Temperatura (°C) Humitat rel. (%) Pressió rel. (hPa) Vent (km/h) Precipitació
Mínima Mitjana Màxima Amplitud
tèrmica
Mínima Mitjana Màxima Mínima Mitjana Màxima Predom. Mitjana Ràfega
màxima
Total
(mm)
Índex-n
Mínima Mitjana Màxima Mínima Mitjana Màxima n
0 a 1
P0 max
mm 5'
Dades mensuals acumulades fins l'últim dia disponible
08/2021 19,9 20,2 20,4 23,4 26,8 27,1 27,4 7,5 46 72 88 1.001 1.005 1.007   7,0 32,2 0,0
Dades anuals acumulades fins l'últim dia disponible
2021 1,2 13,2 24,4 16,3 6,6 20,0 35,1 33,9 25 76 98 993 1.009 1.028   8,9 64,4 317,2
Últims 30 dies disponibles
02-08-2021 19,9     23,6     27,4 7,5 61 77 88 1.005 1.006 1.007 ESE 4,8 25,7 0,0
01-08-2021 20,4     23,2     26,8 6,4 46 67 86 1.001 1.005 1.007 NNE 9,2 32,2 0,0
31-07-2021 22,8     25,7     29,7 6,9 64 81 93 996 999 1.001 S 12,3 56,3 0,0
30-07-2021 20,9     25,3     31,1 10,2 57 83 93 999 1.001 1.003 SW 9,3 35,4 0,0
29-07-2021 21,2     24,4     28,8 7,6 65 82 92 1.003 1.005 1.007 NNW 8,5 25,7 0,0
28-07-2021 19,4     24,4     28,5 9,1 61 81 95 1.003 1.004 1.006 ENE 7,2 30,6 0,0
27-07-2021 19,6     23,6     27,1 7,5 68 80 91 1.003 1.006 1.007 SW 6,3 24,1 0,0
26-07-2021 20,8     22,7     25,2 4,4 64 84 96 1.000 1.003 1.007 NNE 10,6 48,3 0,4
25-07-2021 23,3     25,7     30,1 6,8 61 82 92 998 1.000 1.001 NNE 12,4 37,0 0,0
24-07-2021 22,8     27,3     33,3 10,5 46 72 86 997 999 1.000 SW 5,5 29,0 0,0
23-07-2021 24,4     26,8     28,9 4,5 36 63 91 999 1.003 1.006 SW 8,4 32,2 0,0
22-07-2021 21,3     27,2     33,7 12,4 25 58 92 1.005 1.008 1.009 SW 5,0 19,3 0,0
21-07-2021 20,3     25,0     29,2 8,9 57 79 93 1.007 1.008 1.009 SW 4,3 19,3 0,0
20-07-2021 22,8     25,2     28,2 5,4 49 67 92 1.004 1.005 1.007 SW 9,8 35,4 0,0
19-07-2021 20,7     24,6     28,3 7,6 55 76 95 1.003 1.004 1.005 SW 6,3 27,4 0,0
18-07-2021 20,3     23,8     27,2 6,9 66 83 92 1.001 1.004 1.007 SW 7,4 32,2 0,0
17-07-2021 19,3     23,3     26,5 7,2 70 83 92 1.006 1.008 1.009 SW 5,8 25,7 0,0
16-07-2021 18,8     22,8     25,7 6,9 72 80 88 1.006 1.009 1.010 SW 9,2 37,0 0,0
15-07-2021 18,6     21,9     26,0 7,4 59 76 89 1.008 1.009 1.010 NE 7,1 30,6 0,0
14-07-2021 18,6     22,4     25,9 7,3 58 71 85 1.008 1.009 1.010 SW 5,0 24,1 0,0
13-07-2021 19,6     22,8     25,9 6,3 47 61 78 1.003 1.007 1.008 NE 12,2 41,8 0,0
12-07-2021 22,6     27,1     35,1 12,5 32 76 94 998 1.000 1.004 SW 8,0 33,8 0,0
11-07-2021 20,0     24,4     29,1 9,1 44 79 93 1.002 1.005 1.007 SSE 6,4 25,7 0,0
10-07-2021 19,4     23,9     28,0 8,6 47 70 91 1.006 1.008 1.011 SW 6,0 24,1 0,0
09-07-2021 20,1     23,2     27,0 6,9 59 79 94 1.010 1.012 1.013 ESE 4,5 24,1 0,0
08-07-2021 21,0     23,7     26,7 5,7 45 74 93 1.008 1.011 1.013 ENE 10,1 37,0 0,0
07-07-2021 21,8     24,9     28,7 6,9 44 72 88 1.002 1.005 1.008 NNE 11,9 38,6 0,0
06-07-2021 21,6     26,3     32,1 10,5 49 78 97 999 1.001 1.002 SSW 4,5 20,9 0,2
05-07-2021 21,5     24,9     29,6 8,1 66 83 94 1.000 1.003 1.006 NNW 10,0 32,2 0,0
04-07-2021 20,7     24,7     28,9 8,2 64 83 95 1.003 1.004 1.005 SW 7,9 27,4 0,2
Últims 13 mesos disponibles
07/2021 17,1 20,7 24,4 24,4 25,2 28,5 35,1 18,0 58 77 85 999 1.005 1.012 SW 7,8 56,3 0,8
06/2021 16,1 18,5 21,3 22,0 20,6 25,8 30,4 14,3 51 75 91 1.001 1.007 1.012 SW 7,9 48,3 7,4
05/2021 11,8 14,7 22,3 18,0 16,7 21,7 28,8 17,0 44 74 92 1.000 1.008 1.014 SW 9,2 43,5 53,6
04/2021 6,9 10,9 13,4 13,6 12,2 16,9 23,4 16,5 69 83 93 997 1.007 1.016 NNE 8,8 49,9 67,6
03/2021 4,9 9,2 11,8 12,0 10,0 15,3 20,8 15,9 58 81 95 1.005 1.013 1.021 NNE 10,9 64,4 92,4
02/2021 6,5 10,4 15,8 13,1 12,8 16,6 22,6 16,1 48 74 90 994 1.010 1.026 SW 8,6 62,8 0,4
01/2021 1,2 7,5 17,6 10,5 6,6 14,2 25,3 24,1 40 67 98 1.000 1.010 1.022 SO 9,2 62,9 95,0
12/2020 3,3 8,0 13,6 11,6 11,5 15,7 21,1 17,8 36 66 91 993 1.010 1.023 SSO 8,9 68,5 7,2
11/2020 7,5 11,6 16,7 14,8 12,5 18,8 23,3 15,8 77 88 98 1.001 1.018 1.025 SSO 5,9 37,0 78,0
10/2020 9,5 13,5 17,0 17,7 19,0 22,5 28,7 19,2 44 70 89 996 1.014 1.022 SSO 6,8 55,5 19,1
09/2020 14,1 18,0 22,5 22,0 22,5 26,7 30,6 16,5 40 73 90 1.008 1.015 1.021 SSO 6,2 44,4 3,0
08/2020 16,0 21,0 23,6 25,3 23,9 29,9 33,4 17,4 64 79 89 1.001 1.012 1.017 SSO 6,8 55,5 28,7
07/2020 18,0 20,9 24,1 24,8 26,3 29,6 34,4 16,4 60 79 94 1.009 1.014 1.019 SO 7,6 34,2 4,1
Tots els anys disponibles
2020 3,3 13,6 24,1 17,4 9,9 21,8 34,4 31,1 35 77 98 993 1.015 1.029 SSO 7,1 86,6 532,8
2019 2,4 13,3 25,3 17,1 10,6 21,7 36,0 33,6 29 71 98 992 1.013 1.029 SO 9,1 84,9 776,3
2018 1,9 13,3 24,3 17,0 7,0 21,6 35,4 33,5 33 71 98 57 986 1.028 SSO 9,0 84,2 580,5
2017 -0,4 13,4 25,4 17,3 6,6 22,0 35,8 36,2 31 70 96 971 1.015 1.031 S 9,0 87,0 647,4
2016 2,8 13,6 25,8 17,8 11,2 22,0 38,4 35,6 24 68 98 981 1.017 1.035 57,0 401,7
Temperatura (°C)
Humitat relativa (%)
Velocitat del vent i ràfega màxima (km/h)
Direcció del vent (°)
Pressió (hPa)
Precipitació (mm)
Nota sobre les dades: s'avisa a l'usuari de la provisionalitat i no oficialitat d'aquestes dades
Logo AVAMET blanc
Web allotjada a Sollutia
Llicència de Creative CommonsLa web d'AVAMET i els seus continguts estan subjectes a una llicència de
Reconeixement - No Comercial - Compartir igual
Avís legal - Política de privacitat - Política de cookies
NOVES ESTACIONS: Rossellles Cases del Riu (Soci), la Mata (Ajuntament/Soci), l'Alcora Araia (Soci), la Vila Joiosa - Salomó del Carabassot (Soci), Ares del Maestrat - la Vall de Catí (Soci), Alpuente - la Torre (Soci), Gaibiel (Ajuntament/Soci), Almenara - Comunitat de Regants (Soci), Gandia - Camí de la mar (Soci) - - -